sensor_id;sensor_type;location;lat;lon;timestamp;pressure;altitude;pressure_sealevel;temperature;humidity
60355;BME280;46198;51.464;-0.066;2023-05-14T00:01:05;102328.28;;;10.63;100.00
60355;BME280;46198;51.464;-0.066;2023-05-14T00:03:34;102334.38;;;10.65;100.00
60355;BME280;46198;51.464;-0.066;2023-05-14T00:06:03;102344.94;;;10.60;100.00
60355;BME280;46198;51.464;-0.066;2023-05-14T00:08:32;102337.53;;;10.54;100.00
60355;BME280;46198;51.464;-0.066;2023-05-14T00:11:00;102338.84;;;10.58;100.00
60355;BME280;46198;51.464;-0.066;2023-05-14T00:13:28;102337.84;;;10.59;100.00
60355;BME280;46198;51.464;-0.066;2023-05-14T00:15:57;102333.41;;;10.58;100.00
60355;BME280;46198;51.464;-0.066;2023-05-14T00:18:26;102326.31;;;10.57;100.00
60355;BME280;46198;51.464;-0.066;2023-05-14T00:20:55;102326.97;;;10.59;100.00
60355;BME280;46198;51.464;-0.066;2023-05-14T00:23:23;102330.91;;;10.57;100.00
60355;BME280;46198;51.464;-0.066;2023-05-14T00:25:51;102320.22;;;10.55;100.00
60355;BME280;46198;51.464;-0.066;2023-05-14T00:28:20;102316.66;;;10.55;100.00
60355;BME280;46198;51.464;-0.066;2023-05-14T00:30:48;102318.91;;;10.51;100.00
60355;BME280;46198;51.464;-0.066;2023-05-14T00:33:16;102319.19;;;10.56;100.00
60355;BME280;46198;51.464;-0.066;2023-05-14T00:35:46;102314.13;;;10.53;100.00
60355;BME280;46198;51.464;-0.066;2023-05-14T00:38:14;102306.31;;;10.50;100.00
60355;BME280;46198;51.464;-0.066;2023-05-14T00:40:45;102309.41;;;10.47;100.00
60355;BME280;46198;51.464;-0.066;2023-05-14T00:43:18;102309.41;;;10.47;100.00
60355;BME280;46198;51.464;-0.066;2023-05-14T00:45:46;102294.16;;;10.46;100.00
60355;BME280;46198;51.464;-0.066;2023-05-14T00:48:17;102293.41;;;10.37;100.00
60355;BME280;46198;51.464;-0.066;2023-05-14T00:50:48;102292.56;;;10.37;100.00
60355;BME280;46198;51.464;-0.066;2023-05-14T00:53:17;102298.63;;;10.39;100.00
60355;BME280;46198;51.464;-0.066;2023-05-14T00:55:46;102292.09;;;10.25;100.00
60355;BME280;46198;51.464;-0.066;2023-05-14T00:58:16;102288.66;;;10.31;100.00
60355;BME280;46198;51.464;-0.066;2023-05-14T01:00:45;102297.31;;;10.35;100.00
60355;BME280;46198;51.464;-0.066;2023-05-14T01:03:14;102286.81;;;10.32;100.00
60355;BME280;46198;51.464;-0.066;2023-05-14T01:05:54;102283.25;;;10.31;100.00
60355;BME280;46198;51.464;-0.066;2023-05-14T01:08:29;102282.06;;;10.26;100.00
60355;BME280;46198;51.464;-0.066;2023-05-14T01:11:05;102282.06;;;10.26;100.00
60355;BME280;46198;51.464;-0.066;2023-05-14T01:13:44;102284.50;;;10.20;100.00
60355;BME280;46198;51.464;-0.066;2023-05-14T01:16:18;102286.31;;;10.28;100.00
60355;BME280;46198;51.464;-0.066;2023-05-14T01:18:49;102279.06;;;10.29;100.00
60355;BME280;46198;51.464;-0.066;2023-05-14T01:21:32;102279.34;;;10.26;100.00
60355;BME280;46198;51.464;-0.066;2023-05-14T01:24:01;102275.34;;;10.21;100.00
60355;BME280;46198;51.464;-0.066;2023-05-14T01:26:29;102275.69;;;10.18;100.00
60355;BME280;46198;51.464;-0.066;2023-05-14T01:29:01;102267.00;;;10.23;100.00
60355;BME280;46198;51.464;-0.066;2023-05-14T01:31:32;102263.44;;;10.23;100.00
60355;BME280;46198;51.464;-0.066;2023-05-14T01:34:03;102272.25;;;10.25;100.00
60355;BME280;46198;51.464;-0.066;2023-05-14T01:36:34;102264.78;;;10.27;100.00
60355;BME280;46198;51.464;-0.066;2023-05-14T01:39:03;102266.16;;;10.23;100.00
60355;BME280;46198;51.464;-0.066;2023-05-14T01:41:31;102258.69;;;10.25;100.00
60355;BME280;46198;51.464;-0.066;2023-05-14T01:44:02;102249.56;;;10.17;100.00
60355;BME280;46198;51.464;-0.066;2023-05-14T01:46:30;102254.34;;;10.15;100.00
60355;BME280;46198;51.464;-0.066;2023-05-14T01:48:59;102254.00;;;10.18;100.00
60355;BME280;46198;51.464;-0.066;2023-05-14T01:51:27;102251.63;;;10.15;100.00
60355;BME280;46198;51.464;-0.066;2023-05-14T01:53:57;102253.69;;;10.13;100.00
60355;BME280;46198;51.464;-0.066;2023-05-14T01:56:26;102256.69;;;10.18;100.00
60355;BME280;46198;51.464;-0.066;2023-05-14T01:58:54;102257.72;;;10.17;100.00
60355;BME280;46198;51.464;-0.066;2023-05-14T02:01:22;102249.41;;;10.19;100.00
60355;BME280;46198;51.464;-0.066;2023-05-14T02:03:52;102256.69;;;10.18;100.00
60355;BME280;46198;51.464;-0.066;2023-05-14T02:06:21;102249.03;;;10.22;100.00
60355;BME280;46198;51.464;-0.066;2023-05-14T02:08:50;102249.50;;;10.26;100.00
60355;BME280;46198;51.464;-0.066;2023-05-14T02:11:20;102258.00;;;10.23;100.00
60355;BME280;46198;51.464;-0.066;2023-05-14T02:13:50;102254.28;;;10.24;100.00
60355;BME280;46198;51.464;-0.066;2023-05-14T02:16:18;102248.00;;;10.23;100.00
60355;BME280;46198;51.464;-0.066;2023-05-14T02:18:46;102239.56;;;10.18;100.00
60355;BME280;46198;51.464;-0.066;2023-05-14T02:25:23;102244.03;;;10.11;100.00
60355;BME280;46198;51.464;-0.066;2023-05-14T02:27:53;102246.22;;;10.15;100.00
60355;BME280;46198;51.464;-0.066;2023-05-14T02:30:21;102240.78;;;10.15;100.00
60355;BME280;46198;51.464;-0.066;2023-05-14T02:32:50;102242.81;;;10.13;100.00
60355;BME280;46198;51.464;-0.066;2023-05-14T02:35:19;102239.56;;;9.95;100.00
60355;BME280;46198;51.464;-0.066;2023-05-14T02:37:48;102231.56;;;10.02;100.00
60355;BME280;46198;51.464;-0.066;2023-05-14T02:40:16;102225.94;;;10.03;100.00
60355;BME280;46198;51.464;-0.066;2023-05-14T02:46:05;102221.34;;;10.04;100.00
60355;BME280;46198;51.464;-0.066;2023-05-14T02:51:52;102218.00;;;10.02;100.00
60355;BME280;46198;51.464;-0.066;2023-05-14T02:54:20;102226.63;;;10.05;100.00
60355;BME280;46198;51.464;-0.066;2023-05-14T02:56:49;102221.56;;;10.02;100.00
60355;BME280;46198;51.464;-0.066;2023-05-14T02:59:17;102213.88;;;10.06;100.00
60355;BME280;46198;51.464;-0.066;2023-05-14T03:01:47;102211.34;;;10.04;100.00
60355;BME280;46198;51.464;-0.066;2023-05-14T03:04:16;102211.06;;;9.99;100.00
60355;BME280;46198;51.464;-0.066;2023-05-14T03:06:44;102208.81;;;10.03;100.00
60355;BME280;46198;51.464;-0.066;2023-05-14T03:09:37;102200.69;;;10.03;100.00
60355;BME280;46198;51.464;-0.066;2023-05-14T03:12:06;102203.94;;;9.98;100.00
60355;BME280;46198;51.464;-0.066;2023-05-14T03:14:34;102204.59;;;10.00;100.00
60355;BME280;46198;51.464;-0.066;2023-05-14T03:17:04;102201.22;;;9.98;100.00
60355;BME280;46198;51.464;-0.066;2023-05-14T03:19:33;102210.41;;;9.97;100.00
60355;BME280;46198;51.464;-0.066;2023-05-14T03:22:01;102210.75;;;9.94;100.00
60355;BME280;46198;51.464;-0.066;2023-05-14T03:24:29;102207.03;;;9.95;100.00
60355;BME280;46198;51.464;-0.066;2023-05-14T03:26:57;102200.75;;;9.94;100.00
60355;BME280;46198;51.464;-0.066;2023-05-14T03:29:25;102198.03;;;9.94;100.00
60355;BME280;46198;51.464;-0.066;2023-05-14T03:31:53;102192.22;;;9.83;100.00
60355;BME280;46198;51.464;-0.066;2023-05-14T03:34:23;102195.88;;;9.90;100.00
60355;BME280;46198;51.464;-0.066;2023-05-14T03:36:51;102189.06;;;9.94;100.00
60355;BME280;46198;51.464;-0.066;2023-05-14T03:39:20;102192.78;;;9.93;100.00
60355;BME280;46198;51.464;-0.066;2023-05-14T03:41:48;102191.09;;;9.92;100.00
60355;BME280;46198;51.464;-0.066;2023-05-14T03:44:16;102198.56;;;9.90;100.00
60355;BME280;46198;51.464;-0.066;2023-05-14T03:46:45;102187.72;;;9.90;100.00
60355;BME280;46198;51.464;-0.066;2023-05-14T03:49:13;102185.38;;;9.87;100.00
60355;BME280;46198;51.464;-0.066;2023-05-14T03:51:43;102184.16;;;9.89;100.00
60355;BME280;46198;51.464;-0.066;2023-05-14T03:54:11;102182.50;;;9.88;100.00
60355;BME280;46198;51.464;-0.066;2023-05-14T03:56:39;102182.66;;;9.87;100.00
60355;BME280;46198;51.464;-0.066;2023-05-14T03:59:07;102184.06;;;9.83;100.00
60355;BME280;46198;51.464;-0.066;2023-05-14T04:01:36;102190.63;;;9.88;100.00
60355;BME280;46198;51.464;-0.066;2023-05-14T04:04:04;102188.47;;;9.84;100.00
60355;BME280;46198;51.464;-0.066;2023-05-14T04:06:33;102182.38;;;9.82;100.00
60355;BME280;46198;51.464;-0.066;2023-05-14T04:09:03;102185.44;;;9.79;100.00
60355;BME280;46198;51.464;-0.066;2023-05-14T04:11:31;102189.84;;;9.80;100.00
60355;BME280;46198;51.464;-0.066;2023-05-14T04:14:00;102193.59;;;9.79;100.00
60355;BME280;46198;51.464;-0.066;2023-05-14T04:16:28;102181.41;;;9.74;100.00
60355;BME280;46198;51.464;-0.066;2023-05-14T04:19:21;102180.03;;;9.79;100.00
60355;BME280;46198;51.464;-0.066;2023-05-14T04:21:50;102180.38;;;9.75;100.00
60355;BME280;46198;51.464;-0.066;2023-05-14T04:24:19;102180.03;;;9.79;100.00
60355;BME280;46198;51.464;-0.066;2023-05-14T04:26:47;102187.75;;;9.67;100.00
60355;BME280;46198;51.464;-0.066;2023-05-14T04:29:16;102182.25;;;9.75;100.00
60355;BME280;46198;51.464;-0.066;2023-05-14T04:31:44;102180.38;;;9.75;100.00
60355;BME280;46198;51.464;-0.066;2023-05-14T04:34:12;102183.63;;;9.71;100.00
60355;BME280;46198;51.464;-0.066;2023-05-14T04:36:40;102181.13;;;9.69;100.00
60355;BME280;46198;51.464;-0.066;2023-05-14T04:39:09;102188.94;;;9.64;100.00
60355;BME280;46198;51.464;-0.066;2023-05-14T04:41:39;102187.31;;;9.55;100.00
60355;BME280;46198;51.464;-0.066;2023-05-14T04:44:08;102182.53;;;9.57;100.00
60355;BME280;46198;51.464;-0.066;2023-05-14T04:46:36;102174.03;;;9.60;100.00
60355;BME280;46198;51.464;-0.066;2023-05-14T04:49:05;102176.75;;;9.60;100.00
60355;BME280;46198;51.464;-0.066;2023-05-14T04:51:33;102172.16;;;9.61;100.00
60355;BME280;46198;51.464;-0.066;2023-05-14T04:54:01;102180.50;;;9.59;100.00
60355;BME280;46198;51.464;-0.066;2023-05-14T04:56:30;102177.31;;;9.56;100.00
60355;BME280;46198;51.464;-0.066;2023-05-14T04:58:59;102184.59;;;9.55;100.00
60355;BME280;46198;51.464;-0.066;2023-05-14T05:01:27;102171.91;;;9.56;100.00
60355;BME280;46198;51.464;-0.066;2023-05-14T05:07:14;102182.91;;;9.54;100.00
60355;BME280;46198;51.464;-0.066;2023-05-14T05:09:42;102180.09;;;9.47;100.00
60355;BME280;46198;51.464;-0.066;2023-05-14T05:12:10;102180.38;;;9.52;100.00
60355;BME280;46198;51.464;-0.066;2023-05-14T05:14:40;102177.13;;;9.57;100.00
60355;BME280;46198;51.464;-0.066;2023-05-14T05:17:08;102181.88;;;9.55;100.00
60355;BME280;46198;51.464;-0.066;2023-05-14T05:19:36;102181.22;;;9.53;100.00
60355;BME280;46198;51.464;-0.066;2023-05-14T05:22:34;102181.72;;;9.57;100.00
60355;BME280;46198;51.464;-0.066;2023-05-14T05:25:03;102182.06;;;9.53;100.00
60355;BME280;46198;51.464;-0.066;2023-05-14T05:27:33;102170.38;;;9.53;100.00
60355;BME280;46198;51.464;-0.066;2023-05-14T05:30:03;102172.44;;;9.51;100.00
60355;BME280;46198;51.464;-0.066;2023-05-14T05:32:32;102185.63;;;9.54;100.00
60355;BME280;46198;51.464;-0.066;2023-05-14T05:35:00;102175.44;;;9.56;100.00
60355;BME280;46198;51.464;-0.066;2023-05-14T05:37:29;102176.13;;;9.58;100.00
60355;BME280;46198;51.464;-0.066;2023-05-14T05:39:57;102173.88;;;9.62;100.00
60355;BME280;46198;51.464;-0.066;2023-05-14T05:42:25;102182.69;;;9.64;100.00
60355;BME280;46198;51.464;-0.066;2023-05-14T05:44:54;102181.47;;;9.66;100.00
60355;BME280;46198;51.464;-0.066;2023-05-14T05:47:23;102190.25;;;9.68;100.00
60355;BME280;46198;51.464;-0.066;2023-05-14T05:49:52;102182.31;;;9.67;100.00
60355;BME280;46198;51.464;-0.066;2023-05-14T05:52:20;102172.31;;;9.67;100.00
60355;BME280;46198;51.464;-0.066;2023-05-14T05:54:49;102173.69;;;9.63;100.00
60355;BME280;46198;51.464;-0.066;2023-05-14T05:57:17;102173.34;;;9.66;100.00
60355;BME280;46198;51.464;-0.066;2023-05-14T05:59:45;102183.16;;;9.67;100.00
60355;BME280;46198;51.464;-0.066;2023-05-14T06:02:13;102172.97;;;9.69;100.00
60355;BME280;46198;51.464;-0.066;2023-05-14T06:04:43;102181.59;;;9.73;100.00
60355;BME280;46198;51.464;-0.066;2023-05-14T06:07:11;102183.25;;;9.74;100.00
60355;BME280;46198;51.464;-0.066;2023-05-14T06:09:39;102172.91;;;9.77;100.00
60355;BME280;46198;51.464;-0.066;2023-05-14T06:12:08;102176.28;;;9.80;100.00
60355;BME280;46198;51.464;-0.066;2023-05-14T06:14:36;102175.63;;;9.77;100.00
60355;BME280;46198;51.464;-0.066;2023-05-14T06:17:05;102166.16;;;9.73;100.00
60355;BME280;46198;51.464;-0.066;2023-05-14T06:19:33;102170.75;;;9.73;100.00
60355;BME280;46198;51.464;-0.066;2023-05-14T06:22:04;102163.97;;;9.69;100.00
60355;BME280;46198;51.464;-0.066;2023-05-14T06:24:32;102163.19;;;9.60;100.00
60355;BME280;46198;51.464;-0.066;2023-05-14T06:27:00;102157.00;;;9.74;100.00
60355;BME280;46198;51.464;-0.066;2023-05-14T06:29:32;102155.44;;;9.80;100.00
60355;BME280;46198;51.464;-0.066;2023-05-14T06:32:04;102150.78;;;9.89;100.00
60355;BME280;46198;51.464;-0.066;2023-05-14T06:34:33;102144.69;;;9.87;100.00
60355;BME280;46198;51.464;-0.066;2023-05-14T06:37:05;102145.88;;;9.84;100.00
60355;BME280;46198;51.464;-0.066;2023-05-14T06:39:37;102149.44;;;9.85;100.00
60355;BME280;46198;51.464;-0.066;2023-05-14T06:42:06;102149.44;;;9.85;100.00
60355;BME280;46198;51.464;-0.066;2023-05-14T06:44:34;102146.72;;;9.85;100.00
60355;BME280;46198;51.464;-0.066;2023-05-14T06:47:03;102142.63;;;9.89;100.00
60355;BME280;46198;51.464;-0.066;2023-05-14T06:49:34;102144.31;;;9.90;100.00
60355;BME280;46198;51.464;-0.066;2023-05-14T06:52:04;102147.59;;;9.85;100.00
60355;BME280;46198;51.464;-0.066;2023-05-14T06:54:33;102135.81;;;9.93;100.00
60355;BME280;46198;51.464;-0.066;2023-05-14T06:57:02;102138.53;;;9.93;100.00
60355;BME280;46198;51.464;-0.066;2023-05-14T06:59:30;102140.41;;;9.92;100.00
60355;BME280;46198;51.464;-0.066;2023-05-14T07:01:59;102136.47;;;9.95;100.00
60355;BME280;46198;51.464;-0.066;2023-05-14T07:04:27;102136.75;;;10.00;100.00
60355;BME280;46198;51.464;-0.066;2023-05-14T07:06:55;102140.03;;;9.95;100.00
60355;BME280;46198;51.464;-0.066;2023-05-14T07:09:23;102133.00;;;10.01;100.00
60355;BME280;46198;51.464;-0.066;2023-05-14T07:11:53;102133.59;;;10.11;100.00
60355;BME280;46198;51.464;-0.066;2023-05-14T07:14:21;102123.97;;;10.09;100.00
60355;BME280;46198;51.464;-0.066;2023-05-14T07:16:49;102118.16;;;10.12;100.00
60355;BME280;46198;51.464;-0.066;2023-05-14T07:19:17;102129.66;;;10.14;100.00
60355;BME280;46198;51.464;-0.066;2023-05-14T07:21:46;102115.94;;;10.15;100.00
60355;BME280;46198;51.464;-0.066;2023-05-14T07:24:14;102118.72;;;10.07;100.00
60355;BME280;46198;51.464;-0.066;2023-05-14T07:27:09;102111.59;;;10.06;100.00
60355;BME280;46198;51.464;-0.066;2023-05-14T07:29:38;102112.47;;;10.21;100.00
60355;BME280;46198;51.464;-0.066;2023-05-14T07:32:06;102108.19;;;10.27;100.00
60355;BME280;46198;51.464;-0.066;2023-05-14T07:34:34;102109.16;;;10.34;100.00
60355;BME280;46198;51.464;-0.066;2023-05-14T07:37:03;102110.91;;;10.42;100.00
60355;BME280;46198;51.464;-0.066;2023-05-14T07:39:31;102111.66;;;10.51;100.00
60355;BME280;46198;51.464;-0.066;2023-05-14T07:42:00;102100.22;;;10.55;100.00
60355;BME280;46198;51.464;-0.066;2023-05-14T07:44:29;102112.19;;;10.61;100.00
60355;BME280;46198;51.464;-0.066;2023-05-14T07:46:58;102112.09;;;10.69;100.00
60355;BME280;46198;51.464;-0.066;2023-05-14T07:49:26;102114.19;;;10.67;100.00
60355;BME280;46198;51.464;-0.066;2023-05-14T07:51:54;102108.72;;;10.82;100.00
60355;BME280;46198;51.464;-0.066;2023-05-14T07:54:23;102106.53;;;10.92;100.00
60355;BME280;46198;51.464;-0.066;2023-05-14T07:56:51;102094.91;;;10.98;100.00
60355;BME280;46198;51.464;-0.066;2023-05-14T07:59:19;102098.28;;;11.00;100.00
60355;BME280;46198;51.464;-0.066;2023-05-14T08:01:49;102106.75;;;10.76;100.00
60355;BME280;46198;51.464;-0.066;2023-05-14T08:04:17;102089.66;;;10.97;100.00
60355;BME280;46198;51.464;-0.066;2023-05-14T08:06:45;102103.16;;;10.90;100.00
60355;BME280;46198;51.464;-0.066;2023-05-14T08:09:13;102100.47;;;11.12;100.00
60355;BME280;46198;51.464;-0.066;2023-05-14T08:11:42;102104.31;;;11.17;100.00
60355;BME280;46198;51.464;-0.066;2023-05-14T08:14:10;102095.47;;;11.30;100.00
60355;BME280;46198;51.464;-0.066;2023-05-14T08:16:38;102095.84;;;11.27;100.00
60355;BME280;46198;51.464;-0.066;2023-05-14T08:19:08;102104.31;;;11.39;100.00
60355;BME280;46198;51.464;-0.066;2023-05-14T08:21:36;102100.44;;;11.26;100.00
60355;BME280;46198;51.464;-0.066;2023-05-14T08:24:05;102101.28;;;11.48;100.00
60355;BME280;46198;51.464;-0.066;2023-05-14T08:26:33;102094.66;;;11.58;100.00
60355;BME280;46198;51.464;-0.066;2023-05-14T08:29:01;102091.50;;;11.54;100.00
60355;BME280;46198;51.464;-0.066;2023-05-14T08:31:29;102094.63;;;11.51;100.00
60355;BME280;46198;51.464;-0.066;2023-05-14T08:33:58;102093.84;;;11.57;100.00
60355;BME280;46198;51.464;-0.066;2023-05-14T08:36:27;102094.72;;;11.64;100.00
60355;BME280;46198;51.464;-0.066;2023-05-14T08:38:55;102095.63;;;11.71;100.00
60355;BME280;46198;51.464;-0.066;2023-05-14T08:41:24;102096.47;;;11.72;100.00
60355;BME280;46198;51.464;-0.066;2023-05-14T08:43:57;102098.09;;;11.66;100.00
60355;BME280;46198;51.464;-0.066;2023-05-14T08:46:29;102086.66;;;11.99;100.00
60355;BME280;46198;51.464;-0.066;2023-05-14T08:49:04;102089.06;;;12.15;100.00
60355;BME280;46198;51.464;-0.066;2023-05-14T08:51:37;102081.84;;;12.77;100.00
60355;BME280;46198;51.464;-0.066;2023-05-14T08:54:06;102079.84;;;13.06;100.00
60355;BME280;46198;51.464;-0.066;2023-05-14T08:56:35;102077.97;;;13.06;100.00
60355;BME280;46198;51.464;-0.066;2023-05-14T08:59:05;102080.34;;;12.68;100.00
60355;BME280;46198;51.464;-0.066;2023-05-14T09:01:33;102081.75;;;13.19;100.00
60355;BME280;46198;51.464;-0.066;2023-05-14T09:04:02;102073.44;;;13.67;100.00
60355;BME280;46198;51.464;-0.066;2023-05-14T09:06:35;102071.09;;;14.04;100.00
60355;BME280;46198;51.464;-0.066;2023-05-14T09:09:05;102066.91;;;14.01;100.00
60355;BME280;46198;51.464;-0.066;2023-05-14T09:11:33;102060.78;;;14.12;100.00
60355;BME280;46198;51.464;-0.066;2023-05-14T09:14:01;102068.72;;;14.27;100.00
60355;BME280;46198;51.464;-0.066;2023-05-14T09:16:55;102066.91;;;14.01;100.00
60355;BME280;46198;51.464;-0.066;2023-05-14T09:19:24;102061.75;;;14.45;100.00
60355;BME280;46198;51.464;-0.066;2023-05-14T09:24:18;102056.41;;;15.15;100.00
60355;BME280;46198;51.464;-0.066;2023-05-14T09:26:49;102072.19;;;14.68;100.00
60355;BME280;46198;51.464;-0.066;2023-05-14T09:29:18;102063.75;;;14.76;100.00
60355;BME280;46198;51.464;-0.066;2023-05-14T09:31:49;102062.81;;;15.27;100.00
60355;BME280;46198;51.464;-0.066;2023-05-14T09:34:24;102049.75;;;15.29;100.00
60355;BME280;46198;51.464;-0.066;2023-05-14T09:36:56;102053.47;;;15.10;100.00
60355;BME280;46198;51.464;-0.066;2023-05-14T09:39:26;102052.97;;;15.19;100.00
60355;BME280;46198;51.464;-0.066;2023-05-14T09:41:55;102058.31;;;15.07;100.00
60355;BME280;46198;51.464;-0.066;2023-05-14T09:44:24;102061.25;;;14.68;100.00
60355;BME280;46198;51.464;-0.066;2023-05-14T09:46:53;102052.47;;;15.04;100.00
60355;BME280;46198;51.464;-0.066;2023-05-14T09:49:21;102051.03;;;15.83;100.00
60355;BME280;46198;51.464;-0.066;2023-05-14T09:51:49;102050.97;;;15.33;100.00
60355;BME280;46198;51.464;-0.066;2023-05-14T09:54:18;102052.56;;;15.47;100.00
60355;BME280;46198;51.464;-0.066;2023-05-14T09:56:47;102055.34;;;15.66;100.00
60355;BME280;46198;51.464;-0.066;2023-05-14T09:59:15;102041.81;;;15.52;100.00
60355;BME280;46198;51.464;-0.066;2023-05-14T10:01:44;102044.50;;;15.27;100.00
60355;BME280;46198;51.464;-0.066;2023-05-14T10:04:13;102043.75;;;15.45;100.00
60355;BME280;46198;51.464;-0.066;2023-05-14T10:06:42;102037.66;;;16.12;100.00
60355;BME280;46198;51.464;-0.066;2023-05-14T10:09:15;102042.84;;;16.38;100.00
60355;BME280;46198;51.464;-0.066;2023-05-14T10:11:52;102045.28;;;16.47;100.00
60355;BME280;46198;51.464;-0.066;2023-05-14T10:14:24;102040.41;;;16.30;100.00
60355;BME280;46198;51.464;-0.066;2023-05-14T10:16:55;102037.66;;;16.49;100.00
60355;BME280;46198;51.464;-0.066;2023-05-14T10:19:26;102030.19;;;16.56;100.00
60355;BME280;46198;51.464;-0.066;2023-05-14T10:21:58;102030.94;;;16.81;100.00
60355;BME280;46198;51.464;-0.066;2023-05-14T10:24:31;102032.63;;;16.09;100.00
60355;BME280;46198;51.464;-0.066;2023-05-14T10:27:01;102037.81;;;16.54;100.00
60355;BME280;46198;51.464;-0.066;2023-05-14T10:29:31;102034.75;;;16.80;100.00
60355;BME280;46198;51.464;-0.066;2023-05-14T10:32:03;102025.41;;;17.00;100.00
60355;BME280;46198;51.464;-0.066;2023-05-14T10:34:34;102013.81;;;16.98;100.00
60355;BME280;46198;51.464;-0.066;2023-05-14T10:37:29;102015.22;;;17.42;100.00
60355;BME280;46198;51.464;-0.066;2023-05-14T10:40:00;102018.44;;;17.39;100.00
60355;BME280;46198;51.464;-0.066;2023-05-14T10:42:33;102017.16;;;17.54;100.00
60355;BME280;46198;51.464;-0.066;2023-05-14T10:45:05;102016.81;;;17.73;100.00
60355;BME280;46198;51.464;-0.066;2023-05-14T10:47:35;102012.13;;;16.67;100.00
60355;BME280;46198;51.464;-0.066;2023-05-14T10:50:06;102016.50;;;17.16;100.00
60355;BME280;46198;51.464;-0.066;2023-05-14T10:52:35;101996.13;;;17.36;100.00
60355;BME280;46198;51.464;-0.066;2023-05-14T10:55:05;102003.66;;;17.76;100.00
60355;BME280;46198;51.464;-0.066;2023-05-14T10:57:36;101994.34;;;18.12;100.00
60355;BME280;46198;51.464;-0.066;2023-05-14T11:00:06;101992.47;;;18.29;100.00
60355;BME280;46198;51.464;-0.066;2023-05-14T11:02:38;101992.09;;;18.49;100.00
60355;BME280;46198;51.464;-0.066;2023-05-14T11:05:08;101981.72;;;18.68;100.00
60355;BME280;46198;51.464;-0.066;2023-05-14T11:07:38;101983.84;;;17.97;100.00
60355;BME280;46198;51.464;-0.066;2023-05-14T11:10:08;101979.97;;;18.22;100.00
60355;BME280;46198;51.464;-0.066;2023-05-14T11:12:40;101976.66;;;17.96;100.00
60355;BME280;46198;51.464;-0.066;2023-05-14T11:15:10;101966.03;;;18.40;100.00
60355;BME280;46198;51.464;-0.066;2023-05-14T11:17:40;101956.13;;;18.68;100.00
60355;BME280;46198;51.464;-0.066;2023-05-14T11:20:11;101957.03;;;18.85;100.00
60355;BME280;46198;51.464;-0.066;2023-05-14T11:22:40;101954.22;;;19.14;100.00
60355;BME280;46198;51.464;-0.066;2023-05-14T11:25:10;101953.53;;;19.40;100.00
60355;BME280;46198;51.464;-0.066;2023-05-14T11:27:43;101954.53;;;19.68;100.00
60355;BME280;46198;51.464;-0.066;2023-05-14T11:30:14;101953.84;;;19.78;100.00
60355;BME280;46198;51.464;-0.066;2023-05-14T11:32:44;101957.63;;;19.93;100.00
60355;BME280;46198;51.464;-0.066;2023-05-14T11:35:14;101956.59;;;20.00;100.00
60355;BME280;46198;51.464;-0.066;2023-05-14T11:37:48;101952.19;;;19.99;100.00
60355;BME280;46198;51.464;-0.066;2023-05-14T11:40:18;101945.84;;;20.20;100.00
60355;BME280;46198;51.464;-0.066;2023-05-14T11:42:49;101953.91;;;19.83;100.00
60355;BME280;46198;51.464;-0.066;2023-05-14T11:45:23;101947.72;;;20.14;100.00
60355;BME280;46198;51.464;-0.066;2023-05-14T11:47:52;101944.13;;;20.14;100.00
60355;BME280;46198;51.464;-0.066;2023-05-14T11:50:21;101956.56;;;20.44;100.00
60355;BME280;46198;51.464;-0.066;2023-05-14T11:52:50;101943.44;;;20.51;100.00
60355;BME280;46198;51.464;-0.066;2023-05-14T11:55:18;101938.38;;;20.43;100.00
60355;BME280;46198;51.464;-0.066;2023-05-14T11:57:48;101937.41;;;20.81;100.00
60355;BME280;46198;51.464;-0.066;2023-05-14T12:00:18;101921.19;;;20.90;100.00
60355;BME280;46198;51.464;-0.066;2023-05-14T12:02:49;101927.78;;;20.84;99.63
60355;BME280;46198;51.464;-0.066;2023-05-14T12:05:18;101935.28;;;20.88;99.87
60355;BME280;46198;51.464;-0.066;2023-05-14T12:07:46;101926.00;;;21.37;90.57
60355;BME280;46198;51.464;-0.066;2023-05-14T12:10:14;101924.72;;;20.80;76.02
60355;BME280;46198;51.464;-0.066;2023-05-14T12:12:44;101922.34;;;21.26;77.11
60355;BME280;46198;51.464;-0.066;2023-05-14T12:15:15;101918.00;;;21.83;78.69
60355;BME280;46198;51.464;-0.066;2023-05-14T12:17:48;101915.41;;;22.19;84.54
60355;BME280;46198;51.464;-0.066;2023-05-14T12:20:18;101913.22;;;22.31;70.26
60355;BME280;46198;51.464;-0.066;2023-05-14T12:22:46;101911.00;;;22.33;69.12
60355;BME280;46198;51.464;-0.066;2023-05-14T12:25:14;101901.66;;;22.65;64.64
60355;BME280;46198;51.464;-0.066;2023-05-14T12:27:43;101895.59;;;22.88;64.89
60355;BME280;46198;51.464;-0.066;2023-05-14T12:30:12;101900.94;;;22.06;60.51
60355;BME280;46198;51.464;-0.066;2023-05-14T12:32:45;101897.47;;;22.31;59.64
60355;BME280;46198;51.464;-0.066;2023-05-14T12:35:15;101898.28;;;22.27;62.62
60355;BME280;46198;51.464;-0.066;2023-05-14T12:37:43;101893.91;;;22.62;60.75
60355;BME280;46198;51.464;-0.066;2023-05-14T12:40:12;101890.34;;;21.83;53.44
60355;BME280;46198;51.464;-0.066;2023-05-14T12:42:40;101881.13;;;22.35;56.85
60355;BME280;46198;51.464;-0.066;2023-05-14T12:45:09;101881.16;;;22.55;55.85
60355;BME280;46198;51.464;-0.066;2023-05-14T12:47:41;101892.09;;;21.99;53.26
60355;BME280;46198;51.464;-0.066;2023-05-14T12:50:12;101890.25;;;21.62;58.39
60355;BME280;46198;51.464;-0.066;2023-05-14T12:52:41;101883.47;;;21.38;56.32
60355;BME280;46198;51.464;-0.066;2023-05-14T12:55:09;101874.03;;;21.34;57.75
60355;BME280;46198;51.464;-0.066;2023-05-14T12:57:37;101866.38;;;21.03;51.55
60355;BME280;46198;51.464;-0.066;2023-05-14T13:00:07;101879.63;;;20.69;56.07
60355;BME280;46198;51.464;-0.066;2023-05-14T13:02:40;101873.53;;;20.67;54.96